createdAt,value
2022-09-24T00:01:34.817Z,25.47
2022-09-24T00:04:25.686Z,23.27
2022-09-24T00:07:13.239Z,25.53
2022-09-24T00:10:01.536Z,25.27
2022-09-24T00:12:48.726Z,24.33
2022-09-24T00:15:42.874Z,23.67
2022-09-24T00:18:30.893Z,24.00
2022-09-24T00:21:23.272Z,23.33
2022-09-24T00:24:34.654Z,23.63
2022-09-24T00:27:22.156Z,20.37
2022-09-24T00:30:09.736Z,21.00
2022-09-24T00:32:57.156Z,22.83
2022-09-24T00:35:44.226Z,20.63
2022-09-24T00:38:32.897Z,23.50
2022-09-24T00:41:21.174Z,22.70
2022-09-24T00:44:42.677Z,22.73
2022-09-24T00:47:37.290Z,23.23
2022-09-24T00:50:31.829Z,22.15
2022-09-24T00:53:22.712Z,24.90
2022-09-24T00:56:15.528Z,25.37
2022-09-24T00:59:04.693Z,24.63
2022-09-24T01:01:57.559Z,24.73
2022-09-24T01:04:45.229Z,25.50
2022-09-24T01:07:32.672Z,24.17
2022-09-24T01:10:48.302Z,25.60
2022-09-24T01:13:44.728Z,24.45
2022-09-24T01:16:47.387Z,26.00
2022-09-24T01:20:05.812Z,25.27
2022-09-24T01:23:17.846Z,25.30
2022-09-24T01:26:07.754Z,22.67
2022-09-24T01:29:32.225Z,26.33
2022-09-24T01:32:33.252Z,26.83
2022-09-24T01:35:32.038Z,25.03
2022-09-24T01:38:26.816Z,25.70
2022-09-24T01:41:16.075Z,25.65
2022-09-24T01:44:06.933Z,24.63
2022-09-24T01:46:54.864Z,24.80
2022-09-24T01:49:42.562Z,24.97
2022-09-24T01:52:43.948Z,25.97
2022-09-24T01:55:38.400Z,24.23
2022-09-24T01:58:40.355Z,26.73
2022-09-24T02:01:45.288Z,23.40
2022-09-24T02:04:39.857Z,25.03
2022-09-24T02:07:33.900Z,25.60
2022-09-24T02:10:21.076Z,24.53
2022-09-24T02:13:14.003Z,25.20
2022-09-24T02:25:14.903Z,24.97
2022-09-24T02:28:03.213Z,24.53
2022-09-24T02:30:59.224Z,25.23
2022-09-24T02:34:09.058Z,24.97
2022-09-24T02:46:02.843Z,22.70
2022-09-24T02:48:50.343Z,22.67
2022-09-24T02:51:40.135Z,23.23
2022-09-24T02:54:27.340Z,20.93
2022-09-24T02:57:14.547Z,20.27
2022-09-24T03:00:02.647Z,19.80
2022-09-24T03:02:49.839Z,17.30
2022-09-24T03:05:37.444Z,17.77
2022-09-24T03:08:25.274Z,17.77
2022-09-24T03:11:17.690Z,17.40
2022-09-24T03:14:06.167Z,17.93
2022-09-24T03:16:53.884Z,17.47
2022-09-24T03:19:41.962Z,16.43
2022-09-24T03:22:29.659Z,17.47
2022-09-24T03:25:17.627Z,16.47
2022-09-24T03:28:05.106Z,15.80
2022-09-24T03:31:01.400Z,17.93
2022-09-24T03:33:49.514Z,16.80
2022-09-24T03:36:36.624Z,18.47
2022-09-24T03:39:24.044Z,18.13
2022-09-24T03:42:11.530Z,18.90
2022-09-24T03:44:59.676Z,18.63
2022-09-24T03:47:46.857Z,19.27
2022-09-24T04:10:09.639Z,20.93
2022-09-24T04:12:57.636Z,21.33
2022-09-24T04:15:45.380Z,22.27
2022-09-24T04:18:37.006Z,22.70
2022-09-24T04:21:26.405Z,23.77
2022-09-24T04:24:14.218Z,23.40
2022-09-24T04:27:28.864Z,26.03
2022-09-24T04:30:48.049Z,27.10
2022-09-24T04:33:44.289Z,27.70
2022-09-24T04:36:42.567Z,25.13
2022-09-24T04:39:58.845Z,22.58
2022-09-24T04:42:56.182Z,13.33
2022-09-24T04:45:59.030Z,10.20
2022-09-24T04:48:46.525Z,9.03
2022-09-24T04:51:40.926Z,8.37
2022-09-24T04:54:29.849Z,7.27
2022-09-24T04:57:17.638Z,7.90
2022-09-24T05:00:19.265Z,8.87
2022-09-24T05:03:16.287Z,8.37
2022-09-24T05:06:03.877Z,8.00
2022-09-24T05:08:51.464Z,7.40
2022-09-24T05:11:46.167Z,7.70
2022-09-24T05:14:36.369Z,7.23
2022-09-24T05:17:26.531Z,5.60
2022-09-24T05:20:19.385Z,3.57
2022-09-24T05:23:07.966Z,3.20
2022-09-24T05:29:50.820Z,2.27
2022-09-24T05:32:38.379Z,2.43
2022-09-24T05:35:25.781Z,2.73
2022-09-24T05:38:12.867Z,2.47
2022-09-24T05:41:00.346Z,1.93
2022-09-24T05:43:49.014Z,2.80
2022-09-24T05:46:36.680Z,2.43
2022-09-24T05:49:24.752Z,2.80
2022-09-24T05:52:12.219Z,2.50
2022-09-24T05:54:59.290Z,2.17
2022-09-24T05:57:46.801Z,2.43
2022-09-24T06:00:36.218Z,2.40
2022-09-24T06:03:23.496Z,2.40
2022-09-24T06:06:11.176Z,2.60
2022-09-24T06:08:58.677Z,3.03
2022-09-24T06:11:46.570Z,2.07
2022-09-24T06:14:33.695Z,3.10
2022-09-24T06:17:21.480Z,2.13
2022-09-24T06:20:09.189Z,3.07
2022-09-24T06:22:59.901Z,2.10
2022-09-24T06:25:53.392Z,2.00
2022-09-24T06:28:41.758Z,2.27
2022-09-24T06:31:28.967Z,1.77
2022-09-24T06:34:16.488Z,1.77
2022-09-24T06:37:03.975Z,2.23
2022-09-24T06:39:51.048Z,3.37
2022-09-24T06:52:30.492Z,2.70
2022-09-24T06:55:18.664Z,2.30
2022-09-24T06:58:08.823Z,2.27
2022-09-24T07:00:59.344Z,2.00
2022-09-24T07:03:46.552Z,2.30
2022-09-24T07:06:55.838Z,2.20
2022-09-24T07:09:43.313Z,2.20
2022-09-24T07:12:32.667Z,2.27
2022-09-24T07:15:20.316Z,2.00
2022-09-24T07:18:08.682Z,2.73
2022-09-24T07:20:56.416Z,2.53
2022-09-24T07:23:43.522Z,2.50
2022-09-24T07:26:30.945Z,2.70
2022-09-24T07:29:18.554Z,1.87
2022-09-24T07:32:06.003Z,1.90
2022-09-24T07:34:54.144Z,2.10
2022-09-24T07:37:41.654Z,1.90
2022-09-24T07:40:30.392Z,1.80
2022-09-24T07:43:17.655Z,1.70
2022-09-24T07:46:05.650Z,1.93
2022-09-24T07:48:56.028Z,1.40
2022-09-24T07:51:44.235Z,1.57
2022-09-24T07:54:31.826Z,1.70
2022-09-24T07:57:18.909Z,1.80
2022-09-24T08:00:06.621Z,2.50
2022-09-24T08:02:56.327Z,1.90
2022-09-24T08:05:48.116Z,1.67
2022-09-24T08:08:35.929Z,2.47
2022-09-24T08:11:23.386Z,2.33
2022-09-24T08:14:11.024Z,2.07
2022-09-24T08:16:58.458Z,2.00
2022-09-24T08:19:46.968Z,1.80
2022-09-24T08:22:34.348Z,1.93
2022-09-24T08:25:21.766Z,1.47
2022-09-24T08:28:12.112Z,2.30
2022-09-24T08:31:00.994Z,2.07
2022-09-24T08:33:50.821Z,1.73
2022-09-24T08:36:42.794Z,1.60
2022-09-24T08:39:31.015Z,1.43
2022-09-24T08:42:30.340Z,1.87
2022-09-24T08:45:36.678Z,1.73
2022-09-24T08:48:31.622Z,1.87
2022-09-24T08:51:21.514Z,1.70
2022-09-24T08:54:15.935Z,1.80
2022-09-24T08:57:10.944Z,1.37
2022-09-24T09:03:06.756Z,1.60
2022-09-24T09:06:04.058Z,1.88
2022-09-24T09:09:20.333Z,1.97
2022-09-24T09:15:03.554Z,1.90
2022-09-24T09:18:03.012Z,2.33
2022-09-24T09:20:50.648Z,2.03
2022-09-24T09:23:46.987Z,1.93
2022-09-24T09:26:34.937Z,1.90
2022-09-24T09:29:28.004Z,1.90
2022-09-24T09:32:35.586Z,1.80
2022-09-24T09:35:23.502Z,1.70
2022-09-24T09:38:46.244Z,2.10
2022-09-24T09:41:40.045Z,1.90
2022-09-24T09:44:30.368Z,1.30
2022-09-24T09:47:20.905Z,1.77
2022-09-24T09:50:39.412Z,1.63
2022-09-24T09:53:31.177Z,2.13
2022-09-24T09:56:24.598Z,2.40
2022-09-24T09:59:11.993Z,1.77
2022-09-24T10:01:59.717Z,1.70
2022-09-24T10:04:50.001Z,1.90
2022-09-24T10:07:45.680Z,2.03
2022-09-24T10:10:33.169Z,1.70
2022-09-24T10:13:20.300Z,2.20
2022-09-24T10:16:10.406Z,1.70
2022-09-24T10:18:58.490Z,2.23
2022-09-24T10:21:45.849Z,3.33
2022-09-24T10:24:35.803Z,1.70
2022-09-24T10:27:30.057Z,1.67
2022-09-24T10:30:36.169Z,2.00
2022-09-24T10:33:27.108Z,1.97
2022-09-24T10:36:19.135Z,1.70
2022-09-24T10:39:14.156Z,2.07
2022-09-24T10:42:01.592Z,1.55
2022-09-24T10:44:52.811Z,1.90
2022-09-24T10:48:04.993Z,1.30
2022-09-24T10:51:24.131Z,1.50
2022-09-24T10:55:03.659Z,2.00
2022-09-24T10:58:03.114Z,1.73
2022-09-24T11:01:22.995Z,1.43
2022-09-24T11:04:20.245Z,1.40
2022-09-24T11:07:46.260Z,1.37
2022-09-24T11:10:43.418Z,1.87
2022-09-24T11:13:36.350Z,1.93
2022-09-24T11:17:07.028Z,1.73
2022-09-24T11:20:00.817Z,1.40
2022-09-24T11:23:08.294Z,1.43
2022-09-24T11:26:09.423Z,1.43
2022-09-24T11:29:14.073Z,1.33
2022-09-24T11:32:19.673Z,1.67
2022-09-24T11:35:47.038Z,1.60
2022-09-24T11:38:43.232Z,1.60
2022-09-24T11:41:49.703Z,1.53
2022-09-24T11:44:54.778Z,1.60
2022-09-24T11:48:18.944Z,1.97
2022-09-24T11:51:26.362Z,1.70
2022-09-24T11:54:32.226Z,2.03
2022-09-24T11:57:27.720Z,1.95
2022-09-24T12:03:11.679Z,1.57
2022-09-24T12:09:23.709Z,1.83
2022-09-24T12:12:35.025Z,1.60
2022-09-24T12:15:27.102Z,1.80
2022-09-24T12:18:23.736Z,1.20
2022-09-24T12:21:15.556Z,1.70
2022-09-24T12:31:12.407Z,1.60
2022-09-24T12:34:26.332Z,1.10
2022-09-24T12:37:18.452Z,1.50
2022-09-24T12:40:12.141Z,1.50
2022-09-24T12:43:02.850Z,1.60
2022-09-24T12:46:00.249Z,1.40
2022-09-24T12:49:19.465Z,1.40
2022-09-24T12:52:35.482Z,1.50
2022-09-24T12:55:26.075Z,1.47
2022-09-24T12:58:40.982Z,1.73
2022-09-24T13:01:56.951Z,1.60
2022-09-24T13:05:11.859Z,1.33
2022-09-24T13:08:03.858Z,2.87
2022-09-24T13:11:00.521Z,1.60
2022-09-24T13:14:05.885Z,1.93
2022-09-24T13:16:56.740Z,1.70
2022-09-24T13:19:45.806Z,1.20
2022-09-24T13:22:35.648Z,1.23
2022-09-24T13:25:25.477Z,1.27
2022-09-24T13:36:38.655Z,1.60
2022-09-24T13:40:43.117Z,1.57
2022-09-24T13:53:28.090Z,1.20
2022-09-24T13:56:17.757Z,1.20
2022-09-24T13:59:09.893Z,1.53
2022-09-24T14:01:57.605Z,1.90
2022-09-24T14:04:46.517Z,1.30
2022-09-24T14:07:34.295Z,1.77
2022-09-24T14:10:24.899Z,1.17
2022-09-24T14:13:22.537Z,1.87
2022-09-24T14:16:13.255Z,0.90
2022-09-24T14:19:04.213Z,2.40
2022-09-24T14:21:58.165Z,1.27
2022-09-24T14:24:58.722Z,1.07
2022-09-24T14:27:49.599Z,1.50
2022-09-24T14:30:47.408Z,1.20
2022-09-24T14:33:38.701Z,1.33
2022-09-24T14:36:29.100Z,1.43
2022-09-24T14:39:16.322Z,1.47
2022-09-24T14:42:10.745Z,1.60
2022-09-24T14:44:59.634Z,2.50
2022-09-24T14:47:49.605Z,1.60
2022-09-24T14:50:41.345Z,1.77
2022-09-24T14:53:37.264Z,1.20
2022-09-24T14:56:30.416Z,1.30
2022-09-24T14:59:35.903Z,1.63
2022-09-24T15:05:16.898Z,1.23
2022-09-24T15:08:27.310Z,1.50
2022-09-24T15:11:21.411Z,1.20
2022-09-24T15:14:15.041Z,1.30
2022-09-24T15:20:14.129Z,1.20
2022-09-24T15:23:01.941Z,1.60
2022-09-24T15:25:50.032Z,1.73
2022-09-24T15:28:37.489Z,1.57
2022-09-24T15:31:24.838Z,0.93
2022-09-24T15:34:15.441Z,1.33
2022-09-24T15:37:09.635Z,1.10
2022-09-24T15:40:04.667Z,1.83
2022-09-24T15:42:52.380Z,1.17
2022-09-24T15:45:39.949Z,1.30
2022-09-24T15:48:40.071Z,1.60
2022-09-24T15:51:27.640Z,1.60
2022-09-24T15:54:14.714Z,1.50
2022-09-24T15:57:02.716Z,1.27
2022-09-24T15:59:50.687Z,1.10
2022-09-24T16:02:38.220Z,1.37
2022-09-24T16:05:26.097Z,1.23
2022-09-24T16:08:14.155Z,1.20
2022-09-24T16:11:05.777Z,1.20
2022-09-24T16:13:56.253Z,1.90
2022-09-24T16:16:43.815Z,1.10
2022-09-24T16:19:31.308Z,2.03
2022-09-24T16:22:20.626Z,1.17
2022-09-24T16:25:08.735Z,1.50
2022-09-24T16:27:58.126Z,1.73
2022-09-24T16:30:45.639Z,1.20
2022-09-24T16:33:38.116Z,1.43
2022-09-24T16:36:25.780Z,1.43
2022-09-24T16:39:15.660Z,1.67
2022-09-24T16:42:03.234Z,1.10
2022-09-24T16:44:50.633Z,1.83
2022-09-24T16:47:38.277Z,2.20
2022-09-24T16:50:26.314Z,1.60
2022-09-24T16:53:15.306Z,2.50
2022-09-24T16:56:16.167Z,2.10
2022-09-24T16:59:03.635Z,1.30
2022-09-24T17:01:51.152Z,2.30
2022-09-24T17:04:39.705Z,2.90
2022-09-24T17:07:30.334Z,3.63
2022-09-24T17:10:26.244Z,2.47
2022-09-24T17:13:29.885Z,2.00
2022-09-24T17:16:18.779Z,1.70
2022-09-24T17:19:08.005Z,1.57
2022-09-24T17:21:55.545Z,1.77
2022-09-24T17:24:43.087Z,1.40
2022-09-24T17:27:31.863Z,1.70
2022-09-24T17:30:19.633Z,1.80
2022-09-24T17:33:25.324Z,1.60
2022-09-24T17:36:15.847Z,1.60
2022-09-24T17:39:05.521Z,2.00
2022-09-24T17:41:52.732Z,1.43
2022-09-24T17:44:40.372Z,1.87
2022-09-24T17:47:47.839Z,1.90
2022-09-24T17:50:35.774Z,1.80
2022-09-24T17:53:24.104Z,1.93
2022-09-24T18:02:37.445Z,1.40
2022-09-24T18:05:24.656Z,1.70
2022-09-24T18:08:12.497Z,2.57
2022-09-24T18:11:04.990Z,1.50
2022-09-24T18:13:55.007Z,2.20
2022-09-24T18:16:43.286Z,1.47
2022-09-24T18:19:30.359Z,1.93
2022-09-24T18:22:17.449Z,1.47
2022-09-24T18:25:13.933Z,2.10
2022-09-24T18:28:01.661Z,1.60
2022-09-24T18:31:05.622Z,1.70
2022-09-24T18:34:06.889Z,2.00
2022-09-24T18:36:54.015Z,1.63
2022-09-24T18:39:41.464Z,2.00
2022-09-24T18:42:28.909Z,1.73
2022-09-24T18:45:28.482Z,1.60
2022-09-24T18:48:16.328Z,2.10
2022-09-24T18:51:05.266Z,2.57
2022-09-24T18:53:58.098Z,2.90
2022-09-24T18:56:45.823Z,1.80
2022-09-24T18:59:38.488Z,2.33
2022-09-24T19:02:26.449Z,2.30
2022-09-24T19:05:13.696Z,1.87
2022-09-24T19:08:01.003Z,1.73
2022-09-24T19:10:49.258Z,2.20
2022-09-24T19:13:38.546Z,2.10
2022-09-24T19:16:26.244Z,1.73
2022-09-24T19:19:13.970Z,2.00
2022-09-24T19:22:01.387Z,2.30
2022-09-24T19:24:48.628Z,1.70
2022-09-24T19:27:36.237Z,1.50
2022-09-24T19:30:24.312Z,2.10
2022-09-24T19:33:16.062Z,1.90
2022-09-24T19:36:04.610Z,1.73
2022-09-24T19:38:53.077Z,2.27
2022-09-24T19:41:40.567Z,2.63
2022-09-24T19:44:28.156Z,2.40
2022-09-24T19:47:15.262Z,3.00
2022-09-24T19:50:17.199Z,1.90
2022-09-24T19:53:05.360Z,2.30
2022-09-24T19:55:53.228Z,2.23
2022-09-24T19:58:41.260Z,2.57
2022-09-24T20:01:31.304Z,2.93
2022-09-24T20:04:20.472Z,2.70
2022-09-24T20:07:18.449Z,2.93
2022-09-24T20:10:07.839Z,2.20
2022-09-24T20:12:55.116Z,2.47
2022-09-24T20:15:42.469Z,1.90
2022-09-24T20:18:31.192Z,2.73
2022-09-24T20:21:19.478Z,2.40
2022-09-24T20:24:10.601Z,2.47
2022-09-24T20:27:16.989Z,3.53
2022-09-24T20:32:51.336Z,2.20
2022-09-24T20:35:40.016Z,2.83
2022-09-24T20:38:28.352Z,2.23
2022-09-24T20:41:19.266Z,2.00
2022-09-24T20:44:06.832Z,2.43
2022-09-24T20:46:54.790Z,3.03
2022-09-24T20:49:42.350Z,2.90
2022-09-24T20:52:29.467Z,2.63
2022-09-24T20:55:16.993Z,2.67
2022-09-24T20:58:04.208Z,2.07
2022-09-24T21:00:54.571Z,2.20
2022-09-24T21:03:45.929Z,2.70
2022-09-24T21:06:35.427Z,2.27
2022-09-24T21:09:22.968Z,2.47
2022-09-24T21:12:10.131Z,2.17
2022-09-24T21:14:59.947Z,2.93
2022-09-24T21:18:05.094Z,2.57
2022-09-24T21:20:54.522Z,1.93
2022-09-24T21:23:46.173Z,2.23
2022-09-24T21:26:36.220Z,2.07
2022-09-24T21:29:23.544Z,2.33
2022-09-24T21:32:11.148Z,1.80
2022-09-24T21:34:58.801Z,1.70
2022-09-24T21:41:03.136Z,1.70
2022-09-24T21:43:51.088Z,1.87
2022-09-24T21:46:38.580Z,1.90
2022-09-24T21:49:26.232Z,1.50
2022-09-24T21:52:13.587Z,1.90
2022-09-24T21:55:01.051Z,1.33
2022-09-24T21:57:48.472Z,1.73
2022-09-24T22:00:35.603Z,2.23
2022-09-24T22:03:23.106Z,1.67
2022-09-24T22:06:10.241Z,2.10
2022-09-24T22:09:05.699Z,2.60
2022-09-24T22:11:55.757Z,1.77
2022-09-24T22:14:44.810Z,2.40
2022-09-24T22:17:33.193Z,2.00
2022-09-24T22:20:20.414Z,2.20
2022-09-24T22:23:07.981Z,2.60
2022-09-24T22:25:57.116Z,2.70
2022-09-24T22:28:45.252Z,1.90
2022-09-24T22:31:33.512Z,2.07
2022-09-24T22:34:40.033Z,2.30
2022-09-24T22:40:15.258Z,2.27
2022-09-24T22:43:02.880Z,2.70
2022-09-24T22:45:50.076Z,3.00
2022-09-24T22:48:38.308Z,2.20
2022-09-24T22:51:28.229Z,2.17
2022-09-24T22:54:16.664Z,2.27
2022-09-24T22:57:04.194Z,2.20
2022-09-24T22:59:51.408Z,2.93
2022-09-24T23:02:39.019Z,2.03
2022-09-24T23:05:26.957Z,2.30
2022-09-24T23:08:14.118Z,2.63
2022-09-24T23:11:12.804Z,2.73
2022-09-24T23:14:06.862Z,2.30
2022-09-24T23:16:58.785Z,2.27
2022-09-24T23:19:49.948Z,2.67
2022-09-24T23:22:37.676Z,2.70
2022-09-24T23:25:25.082Z,2.07
2022-09-24T23:28:12.818Z,1.67
2022-09-24T23:31:00.633Z,2.00
2022-09-24T23:33:49.530Z,2.43
2022-09-24T23:36:37.733Z,2.30
2022-09-24T23:39:24.964Z,2.50
2022-09-24T23:42:12.446Z,2.27
2022-09-24T23:44:59.918Z,2.13
2022-09-24T23:47:47.393Z,2.13
2022-09-24T23:50:34.957Z,2.00
2022-09-24T23:53:22.261Z,3.03
2022-09-24T23:56:09.578Z,2.70
2022-09-24T23:58:57.696Z,2.30
